EDT,Max TemperatureF,Mean TemperatureF,Min TemperatureF,Max Dew PointF,MeanDew PointF,Min DewpointF,Max Humidity, Mean Humidity, Min Humidity, Max Sea Level PressureIn, Mean Sea Level PressureIn, Min Sea Level PressureIn, Max VisibilityMiles, Mean VisibilityMiles, Min VisibilityMiles, Max Wind SpeedMPH, Mean Wind SpeedMPH, Max Gust SpeedMPH,PrecipitationIn, CloudCover, Events, WindDirDegrees
2011-10-1,,,,,,,,,,,,,,,,,,,,,,
2011-10-2,,,,,,,,,,,,,,,,,,,,,,
2011-10-3,,,,,,,,,,,,,,,,,,,,,,
2011-10-4,,,,,,,,,,,,,,,,,,,,,,
2011-10-5,,,,,,,,,,,,,,,,,,,,,,
2011-10-6,,,,,,,,,,,,,,,,,,,,,,
2011-10-7,,,,,,,,,,,,,,,,,,,,,,
2011-10-8,,,,,,,,,,,,,,,,,,,,,,
2011-10-9,,,,,,,,,,,,,,,,,,,,,,
2011-10-10,,,,,,,,,,,,,,,,,,,,,,
2011-10-11,71,64,57,54,49,39,88,65,31,30.22,30.20,30.18,10,10,9,8,3,,0.00,0,,117
2011-10-12,60,56,53,54,50,48,94,80,63,30.21,30.16,30.07,10,10,8,8,4,,0.02,3,Rain,58
2011-10-13,66,62,57,63,59,55,100,96,88,30.00,29.85,29.77,10,6,1,10,7,,0.50,8,Rain,23
2011-10-14,69,66,62,68,66,63,100,98,88,29.75,29.58,29.38,10,3,0,16,7,22,1.61,8,Fog-Rain,152
2011-10-15,64,60,55,54,45,39,88,62,40,29.64,29.59,29.48,10,10,8,18,11,33,0.01,1,,245
2011-10-16,64,60,55,45,38,34,55,46,40,29.87,29.80,29.74,10,10,10,13,9,24,0.00,2,,249
2011-10-17,64,60,55,55,44,32,88,60,30,29.76,29.70,29.63,10,10,8,13,8,23,0.02,2,Rain,262
2011-10-18,66,58,51,46,38,34,77,48,30,29.90,29.85,29.78,10,10,10,10,5,,0.00,1,,245
2011-10-19,60,56,51,61,54,48,100,91,82,29.93,29.81,29.63,10,6,1,15,4,23,2.27,7,Rain,41
2011-10-20,68,62,57,66,54,43,100,77,55,29.70,29.53,29.43,10,7,0,20,9,32,1.02,6,Fog-Rain,193
2011-10-21,60,55,48,43,40,37,82,57,45,29.96,29.85,29.71,10,10,10,13,7,21,0.00,2,,253
2011-10-22,57,50,42,45,42,39,93,72,51,30.07,30.02,29.99,10,10,10,8,4,,0.00,4,,286
2011-10-23,55,50,42,41,39,36,87,66,51,30.15,30.11,30.09,10,10,9,7,2,,0.00,6,,336
2011-10-24,60,50,39,48,44,39,100,81,59,30.15,30.09,29.98,10,10,7,12,2,17,0.00,2,,186
2011-10-25,60,53,46,50,39,30,94,61,31,30.01,29.96,29.93,10,10,8,20,7,31,0.00,1,Rain,304
2011-10-26,57,50,42,46,41,34,93,74,54,30.05,29.93,29.78,10,10,9,9,4,,0.00,3,Rain,6
2011-10-27,50,46,42,46,45,41,100,93,82,29.76,29.68,29.62,10,5,1,12,3,17,1.85,8,Rain,21
2011-10-28,48,40,33,34,29,21,93,70,37,30.19,30.11,29.91,10,10,10,15,10,21,0.00,1,,343
2011-10-29,41,37,33,34,31,25,100,83,56,30.25,30.08,29.80,10,6,0,15,5,24,14.32,4,Rain-Snow,31
2011-10-30,44,38,32,32,31,28,100,79,53,30.26,30.01,29.76,10,8,0,22,14,32,10.44,2,Snow,327
2011-10-31,50,41,32,34,31,28,93,66,43,30.41,30.37,30.31,10,10,8,10,3,,0.00,0,,232